PWSweather.com
Personal Weather Stations
Station Observations
WATERF01
WaterfordIE

WaterfordIE

Lat: 52.2412507, Lon: -7.1414691

Elevation: 65

Station Type: Davis Vantage Vue

www.waterfordweather.com

High Low Average
Temperature 52.9°F11.6°C 49.4°F9.7°C 51.2°F10.7°C
Dew Point 51.8°F11.0°C 48.0°F8.9°C 50.1°F10.1°C
Winds 8.1 mph 13.0 kmh Calm Calm 3.0 mph NW4.8 kmh NW
Wind Gusts 12.7 mph20.4 kmh -- 7.0 mph11.3 kmh
Humidity 97% 94% 96%
Pressure 30.65 in1037.9 mb 30.46 in1031.5 mb -
Precipitation 0.00 in0.0 mm - -
Hour Temp Dew Point Humidity Winds Wind Gusts Pressure Precip Precip Rate Daily Precip Total
12:00 AM 51.3°F10.7°C 50.5°F10.3°C 97% 5.8 mph WSW9.3 kmh WSW 8.1 mph13.0 kmh 30.47 in1031.8 mb - 0.00 in0.0 mm 0.00 in0.0 mm
12:10 AM 51.2°F10.7°C 50.4°F10.2°C 97% 3.5 mph W5.6 kmh W 6.9 mph11.1 kmh 30.46 in1031.5 mb - 0.00 in0.0 mm 0.00 in0.0 mm
12:20 AM 51.0°F10.6°C 50.2°F10.1°C 97% 2.3 mph NW3.7 kmh NW 4.6 mph7.4 kmh 30.47 in1031.8 mb - 0.00 in0.0 mm 0.00 in0.0 mm
12:30 AM 51.0°F10.6°C 50.2°F10.1°C 97% 5.8 mph W9.3 kmh W 11.5 mph18.5 kmh 30.47 in1031.8 mb - 0.00 in0.0 mm 0.00 in0.0 mm
12:40 AM 50.8°F10.4°C 49.9°F9.9°C 97% 3.5 mph WSW5.6 kmh WSW 5.8 mph9.3 kmh 30.47 in1031.8 mb - 0.00 in0.0 mm 0.00 in0.0 mm
12:50 AM 50.5°F10.3°C 49.7°F9.8°C 97% 2.3 mph W3.7 kmh W 5.8 mph9.3 kmh 30.47 in1031.8 mb - 0.00 in0.0 mm 0.00 in0.0 mm
01:00 AM 50.7°F10.4°C 49.9°F9.9°C 97% 1.2 mph W1.9 kmh W 2.3 mph3.7 kmh 30.48 in1032.2 mb - 0.00 in0.0 mm 0.00 in0.0 mm
01:10 AM 51.1°F10.6°C 50.3°F10.2°C 97% 1.2 mph W1.9 kmh W 5.8 mph9.3 kmh 30.47 in1031.8 mb - 0.00 in0.0 mm 0.00 in0.0 mm
01:20 AM 51.2°F10.7°C 50.4°F10.2°C 97% Calm Calm -- 30.47 in1031.8 mb - 0.00 in0.0 mm 0.00 in0.0 mm
01:30 AM 51.3°F10.7°C 50.5°F10.3°C 97% Calm Calm -- 30.47 in1031.8 mb - 0.00 in0.0 mm 0.00 in0.0 mm
01:40 AM 51.5°F10.8°C 50.7°F10.4°C 97% 1.2 mph WSW1.9 kmh WSW 5.8 mph9.3 kmh 30.47 in1031.8 mb - 0.00 in0.0 mm 0.00 in0.0 mm
01:50 AM 51.7°F10.9°C 50.9°F10.5°C 97% Calm Calm 2.3 mph3.7 kmh 30.48 in1032.2 mb - 0.00 in0.0 mm 0.00 in0.0 mm
02:00 AM 51.8°F11.0°C 51.0°F10.6°C 97% Calm Calm -- 30.48 in1032.2 mb - 0.00 in0.0 mm 0.00 in0.0 mm
02:10 AM 51.8°F11.0°C 51.0°F10.6°C 97% Calm Calm 2.3 mph3.7 kmh 30.48 in1032.2 mb - 0.00 in0.0 mm 0.00 in0.0 mm
02:20 AM 51.8°F11.0°C 51.0°F10.6°C 97% Calm Calm -- 30.48 in1032.2 mb - 0.00 in0.0 mm 0.00 in0.0 mm
02:30 AM 51.8°F11.0°C 51.0°F10.6°C 97% Calm Calm 2.3 mph3.7 kmh 30.49 in1032.5 mb - 0.00 in0.0 mm 0.00 in0.0 mm
02:40 AM 51.7°F10.9°C 50.9°F10.5°C 97% Calm Calm -- 30.49 in1032.5 mb - 0.00 in0.0 mm 0.00 in0.0 mm
02:50 AM 51.7°F10.9°C 50.9°F10.5°C 97% Calm Calm -- 30.49 in1032.5 mb - 0.00 in0.0 mm 0.00 in0.0 mm
03:00 AM 51.6°F10.9°C 50.8°F10.4°C 97% Calm Calm -- 30.50 in1032.8 mb - 0.00 in0.0 mm 0.00 in0.0 mm
03:10 AM 51.6°F10.9°C 50.7°F10.4°C 97% Calm Calm -- 30.50 in1032.8 mb - 0.00 in0.0 mm 0.00 in0.0 mm
03:20 AM 51.5°F10.8°C 50.7°F10.4°C 97% Calm Calm -- 30.49 in1032.5 mb - 0.00 in0.0 mm 0.00 in0.0 mm
03:30 AM 51.4°F10.8°C 50.6°F10.3°C 97% Calm Calm -- 30.50 in1032.8 mb - 0.00 in0.0 mm 0.00 in0.0 mm
03:40 AM 51.4°F10.8°C 50.6°F10.3°C 97% Calm Calm -- 30.50 in1032.8 mb - 0.00 in0.0 mm 0.00 in0.0 mm
03:50 AM 51.4°F10.8°C 50.6°F10.3°C 97% Calm Calm -- 30.50 in1032.8 mb - 0.00 in0.0 mm 0.00 in0.0 mm
04:00 AM 51.5°F10.8°C 50.7°F10.4°C 97% Calm Calm -- 30.50 in1032.8 mb - 0.00 in0.0 mm 0.00 in0.0 mm
04:10 AM 51.7°F10.9°C 50.9°F10.5°C 97% Calm Calm -- 30.51 in1033.2 mb - 0.00 in0.0 mm 0.00 in0.0 mm
04:20 AM 51.8°F11.0°C 51.0°F10.6°C 97% 2.3 mph WNW3.7 kmh WNW 5.8 mph9.3 kmh 30.50 in1032.8 mb - 0.00 in0.0 mm 0.00 in0.0 mm
04:30 AM 52.1°F11.2°C 51.3°F10.7°C 97% 4.6 mph WNW7.4 kmh WNW 8.1 mph13.0 kmh 30.50 in1032.8 mb - 0.00 in0.0 mm 0.00 in0.0 mm
04:40 AM 52.2°F11.2°C 51.4°F10.8°C 97% 3.5 mph WNW5.6 kmh WNW 5.8 mph9.3 kmh 30.51 in1033.2 mb - 0.00 in0.0 mm 0.00 in0.0 mm
04:50 AM 52.1°F11.2°C 51.3°F10.7°C 97% 1.2 mph NW1.9 kmh NW 4.6 mph7.4 kmh 30.51 in1033.2 mb - 0.00 in0.0 mm 0.00 in0.0 mm
05:00 AM 52.1°F11.2°C 51.3°F10.7°C 97% 4.6 mph WNW7.4 kmh WNW 8.1 mph13.0 kmh 30.51 in1033.2 mb - 0.00 in0.0 mm 0.00 in0.0 mm
05:10 AM 52.1°F11.2°C 51.3°F10.7°C 97% 2.3 mph NW3.7 kmh NW 8.1 mph13.0 kmh 30.52 in1033.5 mb - 0.00 in0.0 mm 0.00 in0.0 mm
05:20 AM 52.2°F11.2°C 51.4°F10.8°C 97% 3.5 mph WNW5.6 kmh WNW 8.1 mph13.0 kmh 30.52 in1033.5 mb - 0.00 in0.0 mm 0.00 in0.0 mm
05:30 AM 52.2°F11.2°C 51.3°F10.7°C 97% 5.8 mph WNW9.3 kmh WNW 8.1 mph13.0 kmh 30.52 in1033.5 mb - 0.00 in0.0 mm 0.00 in0.0 mm
05:40 AM 52.0°F11.1°C 51.2°F10.7°C 97% 3.5 mph NW5.6 kmh NW 5.8 mph9.3 kmh 30.52 in1033.5 mb - 0.00 in0.0 mm 0.00 in0.0 mm
05:50 AM 51.9°F11.1°C 51.0°F10.6°C 97% 3.5 mph NW5.6 kmh NW 5.8 mph9.3 kmh 30.52 in1033.5 mb - 0.00 in0.0 mm 0.00 in0.0 mm
06:00 AM 51.7°F10.9°C 50.9°F10.5°C 97% 3.5 mph WNW5.6 kmh WNW 5.8 mph9.3 kmh 30.53 in1033.9 mb - 0.00 in0.0 mm 0.00 in0.0 mm
06:10 AM 51.6°F10.9°C 50.8°F10.4°C 97% 3.5 mph WNW5.6 kmh WNW 5.8 mph9.3 kmh 30.52 in1033.5 mb - 0.00 in0.0 mm 0.00 in0.0 mm
06:20 AM 51.5°F10.8°C 50.7°F10.4°C 97% 3.5 mph WNW5.6 kmh WNW 5.8 mph9.3 kmh 30.53 in1033.9 mb - 0.00 in0.0 mm 0.00 in0.0 mm
06:30 AM 51.3°F10.7°C 50.5°F10.3°C 97% 2.3 mph W3.7 kmh W 4.6 mph7.4 kmh 30.53 in1033.9 mb - 0.00 in0.0 mm 0.00 in0.0 mm
06:40 AM 51.2°F10.7°C 50.4°F10.2°C 97% 1.2 mph WNW1.9 kmh WNW 4.6 mph7.4 kmh 30.54 in1034.2 mb - 0.00 in0.0 mm 0.00 in0.0 mm
06:50 AM 51.4°F10.8°C 50.6°F10.3°C 97% 2.3 mph WNW3.7 kmh WNW 5.8 mph9.3 kmh 30.54 in1034.2 mb - 0.00 in0.0 mm 0.00 in0.0 mm
07:00 AM 51.5°F10.8°C 50.7°F10.4°C 97% 2.3 mph NW3.7 kmh NW 2.3 mph3.7 kmh 30.54 in1034.2 mb - 0.00 in0.0 mm 0.00 in0.0 mm
07:10 AM 51.6°F10.9°C 50.8°F10.4°C 97% 3.5 mph NW5.6 kmh NW 6.9 mph11.1 kmh 30.55 in1034.5 mb - 0.00 in0.0 mm 0.00 in0.0 mm
07:20 AM 51.8°F11.0°C 50.9°F10.5°C 97% 3.5 mph NW5.6 kmh NW 6.9 mph11.1 kmh 30.55 in1034.5 mb - 0.00 in0.0 mm 0.00 in0.0 mm
07:30 AM 51.9°F11.1°C 51.1°F10.6°C 97% 3.5 mph NW5.6 kmh NW 8.1 mph13.0 kmh 30.55 in1034.5 mb - 0.00 in0.0 mm 0.00 in0.0 mm
07:40 AM 52.0°F11.1°C 51.2°F10.7°C 97% 4.6 mph NW7.4 kmh NW 8.1 mph13.0 kmh 30.56 in1034.9 mb - 0.00 in0.0 mm 0.00 in0.0 mm
07:50 AM 52.0°F11.1°C 51.2°F10.7°C 97% 4.6 mph NW7.4 kmh NW 6.9 mph11.1 kmh 30.57 in1035.2 mb - 0.00 in0.0 mm 0.00 in0.0 mm
08:00 AM 52.0°F11.1°C 51.2°F10.7°C 97% 3.5 mph NW5.6 kmh NW 6.9 mph11.1 kmh 30.57 in1035.2 mb - 0.00 in0.0 mm 0.00 in0.0 mm
08:10 AM 52.1°F11.2°C 51.3°F10.7°C 97% 4.6 mph NW7.4 kmh NW 6.9 mph11.1 kmh 30.57 in1035.2 mb - 0.00 in0.0 mm 0.00 in0.0 mm
08:20 AM 52.1°F11.2°C 51.3°F10.7°C 97% 4.6 mph NW7.4 kmh NW 6.9 mph11.1 kmh 30.57 in1035.2 mb - 0.00 in0.0 mm 0.00 in0.0 mm
08:30 AM 52.0°F11.1°C 51.2°F10.7°C 97% 6.9 mph NW11.1 kmh NW 11.5 mph18.5 kmh 30.58 in1035.6 mb - 0.00 in0.0 mm 0.00 in0.0 mm
08:40 AM 51.9°F11.1°C 51.1°F10.6°C 97% 5.8 mph NW9.3 kmh NW 6.9 mph11.1 kmh 30.58 in1035.6 mb - 0.00 in0.0 mm 0.00 in0.0 mm
08:50 AM 51.7°F10.9°C 50.6°F10.3°C 96% 5.8 mph NW9.3 kmh NW 12.7 mph20.4 kmh 30.58 in1035.6 mb - 0.00 in0.0 mm 0.00 in0.0 mm
09:00 AM 51.5°F10.8°C 50.4°F10.2°C 96% 3.5 mph NW5.6 kmh NW 8.1 mph13.0 kmh 30.58 in1035.6 mb - 0.00 in0.0 mm 0.00 in0.0 mm
09:10 AM 51.5°F10.8°C 50.4°F10.2°C 96% 5.8 mph NW9.3 kmh NW 11.5 mph18.5 kmh 30.58 in1035.6 mb - 0.00 in0.0 mm 0.00 in0.0 mm
09:20 AM 51.6°F10.9°C 50.5°F10.3°C 96% 5.8 mph NW9.3 kmh NW 11.5 mph18.5 kmh 30.59 in1035.9 mb - 0.00 in0.0 mm 0.00 in0.0 mm
09:30 AM 51.6°F10.9°C 50.5°F10.3°C 96% 4.6 mph NW7.4 kmh NW 8.1 mph13.0 kmh 30.59 in1035.9 mb - 0.00 in0.0 mm 0.00 in0.0 mm
09:40 AM 51.6°F10.9°C 50.5°F10.3°C 96% 2.3 mph NW3.7 kmh NW 8.1 mph13.0 kmh 30.59 in1035.9 mb - 0.00 in0.0 mm 0.00 in0.0 mm
09:50 AM 51.6°F10.9°C 50.5°F10.3°C 96% 4.6 mph NW7.4 kmh NW 8.1 mph13.0 kmh 30.60 in1036.2 mb - 0.00 in0.0 mm 0.00 in0.0 mm
10:00 AM 51.6°F10.9°C 50.5°F10.3°C 96% 3.5 mph NW5.6 kmh NW 5.8 mph9.3 kmh 30.60 in1036.2 mb - 0.00 in0.0 mm 0.00 in0.0 mm
10:10 AM 51.8°F11.0°C 50.7°F10.4°C 96% 2.3 mph NW3.7 kmh NW 5.8 mph9.3 kmh 30.60 in1036.2 mb - 0.00 in0.0 mm 0.00 in0.0 mm
10:20 AM 51.8°F11.0°C 50.7°F10.4°C 96% 2.3 mph WNW3.7 kmh WNW 5.8 mph9.3 kmh 30.61 in1036.6 mb - 0.00 in0.0 mm 0.00 in0.0 mm
10:30 AM 52.1°F11.2°C 51.0°F10.6°C 96% 2.3 mph NW3.7 kmh NW 9.2 mph14.8 kmh 30.61 in1036.6 mb - 0.00 in0.0 mm 0.00 in0.0 mm
10:40 AM 52.4°F11.3°C 51.3°F10.7°C 96% 4.6 mph NW7.4 kmh NW 8.1 mph13.0 kmh 30.61 in1036.6 mb - 0.00 in0.0 mm 0.00 in0.0 mm
10:50 AM 52.7°F11.5°C 51.6°F10.9°C 96% 4.6 mph NW7.4 kmh NW 8.1 mph13.0 kmh 30.61 in1036.6 mb - 0.00 in0.0 mm 0.00 in0.0 mm
11:00 AM 52.9°F11.6°C 51.8°F11.0°C 96% 6.9 mph NW11.1 kmh NW 11.5 mph18.5 kmh 30.61 in1036.6 mb - 0.00 in0.0 mm 0.00 in0.0 mm
11:10 AM 52.9°F11.6°C 51.5°F10.8°C 95% 6.9 mph NW11.1 kmh NW 12.7 mph20.4 kmh 30.61 in1036.6 mb - 0.00 in0.0 mm 0.00 in0.0 mm
11:20 AM 52.8°F11.6°C 51.4°F10.8°C 95% 5.8 mph NW9.3 kmh NW 11.5 mph18.5 kmh 30.62 in1036.9 mb - 0.00 in0.0 mm 0.00 in0.0 mm
11:30 AM 52.6°F11.4°C 51.2°F10.7°C 95% 6.9 mph NW11.1 kmh NW 8.1 mph13.0 kmh 30.61 in1036.6 mb - 0.00 in0.0 mm 0.00 in0.0 mm
11:40 AM 52.6°F11.4°C 51.2°F10.7°C 95% 8.1 mph NW13.0 kmh NW 11.5 mph18.5 kmh 30.61 in1036.6 mb - 0.00 in0.0 mm 0.00 in0.0 mm
11:50 AM 52.6°F11.4°C 51.2°F10.7°C 95% 5.8 mph NW9.3 kmh NW 9.2 mph14.8 kmh 30.61 in1036.6 mb - 0.00 in0.0 mm 0.00 in0.0 mm
12:00 PM 52.7°F11.5°C 51.3°F10.7°C 95% 4.6 mph WNW7.4 kmh WNW 12.7 mph20.4 kmh 30.61 in1036.6 mb - 0.00 in0.0 mm 0.00 in0.0 mm
12:10 PM 52.7°F11.5°C 51.3°F10.7°C 95% 5.8 mph NW9.3 kmh NW 9.2 mph14.8 kmh 30.61 in1036.6 mb - 0.00 in0.0 mm 0.00 in0.0 mm
12:20 PM 52.7°F11.5°C 51.3°F10.7°C 95% 2.3 mph WNW3.7 kmh WNW 4.6 mph7.4 kmh 30.61 in1036.6 mb - 0.00 in0.0 mm 0.00 in0.0 mm
12:30 PM 52.6°F11.4°C 51.2°F10.7°C 95% 4.6 mph NW7.4 kmh NW 8.1 mph13.0 kmh 30.61 in1036.6 mb - 0.00 in0.0 mm 0.00 in0.0 mm
12:40 PM 52.6°F11.4°C 51.2°F10.7°C 95% 5.8 mph NW9.3 kmh NW 11.5 mph18.5 kmh 30.61 in1036.6 mb - 0.00 in0.0 mm 0.00 in0.0 mm
12:50 PM 52.8°F11.6°C 51.4°F10.8°C 95% 3.5 mph NW5.6 kmh NW 8.1 mph13.0 kmh 30.61 in1036.6 mb - 0.00 in0.0 mm 0.00 in0.0 mm
01:00 PM 52.7°F11.5°C 51.0°F10.6°C 94% 4.6 mph NW7.4 kmh NW 9.2 mph14.8 kmh 30.61 in1036.6 mb - 0.00 in0.0 mm 0.00 in0.0 mm
01:10 PM 52.5°F11.4°C 51.1°F10.6°C 95% 6.9 mph NW11.1 kmh NW 9.2 mph14.8 kmh 30.61 in1036.6 mb - 0.00 in0.0 mm 0.00 in0.0 mm
01:20 PM 52.4°F11.3°C 51.0°F10.6°C 95% 5.8 mph NW9.3 kmh NW 9.2 mph14.8 kmh 30.61 in1036.6 mb - 0.00 in0.0 mm 0.00 in0.0 mm
01:30 PM 52.5°F11.4°C 51.1°F10.6°C 95% 4.6 mph NW7.4 kmh NW 8.1 mph13.0 kmh 30.61 in1036.6 mb - 0.00 in0.0 mm 0.00 in0.0 mm
01:40 PM 52.4°F11.3°C 51.0°F10.6°C 95% 6.9 mph NW11.1 kmh NW 11.5 mph18.5 kmh 30.61 in1036.6 mb - 0.00 in0.0 mm 0.00 in0.0 mm
01:50 PM 52.3°F11.3°C 50.6°F10.3°C 94% 6.9 mph NW11.1 kmh NW 12.7 mph20.4 kmh 30.61 in1036.6 mb - 0.00 in0.0 mm 0.00 in0.0 mm
02:00 PM 52.3°F11.3°C 50.6°F10.3°C 94% 5.8 mph NW9.3 kmh NW 9.2 mph14.8 kmh 30.61 in1036.6 mb - 0.00 in0.0 mm 0.00 in0.0 mm
02:10 PM 52.4°F11.3°C 50.7°F10.4°C 94% 4.6 mph NW7.4 kmh NW 8.1 mph13.0 kmh 30.61 in1036.6 mb - 0.00 in0.0 mm 0.00 in0.0 mm
02:20 PM 52.3°F11.3°C 50.7°F10.4°C 94% 4.6 mph NW7.4 kmh NW 11.5 mph18.5 kmh 30.61 in1036.6 mb - 0.00 in0.0 mm 0.00 in0.0 mm
02:30 PM 52.0°F11.1°C 50.3°F10.2°C 94% 3.5 mph NW5.6 kmh NW 6.9 mph11.1 kmh 30.61 in1036.6 mb - 0.00 in0.0 mm 0.00 in0.0 mm
02:40 PM 51.9°F11.1°C 50.2°F10.1°C 94% 3.5 mph NW5.6 kmh NW 11.5 mph18.5 kmh 30.61 in1036.6 mb - 0.00 in0.0 mm 0.00 in0.0 mm
02:50 PM 51.6°F10.9°C 50.2°F10.1°C 95% 5.8 mph NW9.3 kmh NW 11.5 mph18.5 kmh 30.61 in1036.6 mb - 0.00 in0.0 mm 0.00 in0.0 mm
03:00 PM 51.4°F10.8°C 50.0°F10.0°C 95% 3.5 mph NW5.6 kmh NW 8.1 mph13.0 kmh 30.61 in1036.6 mb - 0.00 in0.0 mm 0.00 in0.0 mm
03:10 PM 51.3°F10.7°C 49.9°F9.9°C 95% 5.8 mph NW9.3 kmh NW 9.2 mph14.8 kmh 30.61 in1036.6 mb - 0.00 in0.0 mm 0.00 in0.0 mm
03:20 PM 51.2°F10.7°C 49.8°F9.9°C 95% 4.6 mph NW7.4 kmh NW 11.5 mph18.5 kmh 30.61 in1036.6 mb - 0.00 in0.0 mm 0.00 in0.0 mm
03:30 PM 51.0°F10.6°C 49.6°F9.8°C 95% 5.8 mph NW9.3 kmh NW 11.5 mph18.5 kmh 30.61 in1036.6 mb - 0.00 in0.0 mm 0.00 in0.0 mm
03:40 PM 51.0°F10.6°C 49.6°F9.8°C 95% 6.9 mph NW11.1 kmh NW 11.5 mph18.5 kmh 30.61 in1036.6 mb - 0.00 in0.0 mm 0.00 in0.0 mm
03:50 PM 50.9°F10.5°C 49.5°F9.7°C 95% 8.1 mph NW13.0 kmh NW 11.5 mph18.5 kmh 30.62 in1036.9 mb - 0.00 in0.0 mm 0.00 in0.0 mm
04:00 PM 50.9°F10.5°C 49.5°F9.7°C 95% 2.3 mph NW3.7 kmh NW 5.8 mph9.3 kmh 30.62 in1036.9 mb - 0.00 in0.0 mm 0.00 in0.0 mm
04:10 PM 50.8°F10.4°C 49.4°F9.7°C 95% 4.6 mph NW7.4 kmh NW 8.1 mph13.0 kmh 30.62 in1036.9 mb - 0.00 in0.0 mm 0.00 in0.0 mm
04:20 PM 50.7°F10.4°C 49.3°F9.6°C 95% 4.6 mph NW7.4 kmh NW 8.1 mph13.0 kmh 30.62 in1036.9 mb - 0.00 in0.0 mm 0.00 in0.0 mm
04:30 PM 50.8°F10.4°C 49.4°F9.7°C 95% 3.5 mph NW5.6 kmh NW 5.8 mph9.3 kmh 30.63 in1037.3 mb - 0.00 in0.0 mm 0.00 in0.0 mm
04:40 PM 50.7°F10.4°C 49.3°F9.6°C 95% 5.8 mph NW9.3 kmh NW 9.2 mph14.8 kmh 30.63 in1037.3 mb - 0.00 in0.0 mm 0.00 in0.0 mm
04:50 PM 50.7°F10.4°C 49.3°F9.6°C 95% 5.8 mph NW9.3 kmh NW 9.2 mph14.8 kmh 30.63 in1037.3 mb - 0.00 in0.0 mm 0.00 in0.0 mm
05:00 PM 50.6°F10.3°C 49.2°F9.6°C 95% 3.5 mph NW5.6 kmh NW 5.8 mph9.3 kmh 30.64 in1037.6 mb - 0.00 in0.0 mm 0.00 in0.0 mm
05:10 PM 50.6°F10.3°C 49.2°F9.6°C 95% 3.5 mph NNW5.6 kmh NNW 5.8 mph9.3 kmh 30.64 in1037.6 mb - 0.00 in0.0 mm 0.00 in0.0 mm
05:20 PM 50.6°F10.3°C 49.2°F9.6°C 95% 2.3 mph NW3.7 kmh NW 8.1 mph13.0 kmh 30.64 in1037.6 mb - 0.00 in0.0 mm 0.00 in0.0 mm
05:30 PM 50.4°F10.2°C 49.0°F9.4°C 95% 4.6 mph NW7.4 kmh NW 9.2 mph14.8 kmh 30.64 in1037.6 mb - 0.00 in0.0 mm 0.00 in0.0 mm
05:40 PM 50.4°F10.2°C 49.0°F9.4°C 95% 2.3 mph NW3.7 kmh NW 5.8 mph9.3 kmh 30.64 in1037.6 mb - 0.00 in0.0 mm 0.00 in0.0 mm
05:50 PM 50.5°F10.3°C 49.1°F9.5°C 95% Calm Calm 1.2 mph1.9 kmh 30.64 in1037.6 mb - 0.00 in0.0 mm 0.00 in0.0 mm
06:00 PM 50.5°F10.3°C 49.1°F9.5°C 95% 1.2 mph NW1.9 kmh NW 6.9 mph11.1 kmh 30.64 in1037.6 mb - 0.00 in0.0 mm 0.00 in0.0 mm
06:10 PM 50.5°F10.3°C 49.1°F9.5°C 95% 2.3 mph NW3.7 kmh NW 5.8 mph9.3 kmh 30.65 in1037.9 mb - 0.00 in0.0 mm 0.00 in0.0 mm
06:20 PM 50.6°F10.3°C 49.2°F9.6°C 95% 4.6 mph NW7.4 kmh NW 6.9 mph11.1 kmh 30.64 in1037.6 mb - 0.00 in0.0 mm 0.00 in0.0 mm
06:30 PM 50.6°F10.3°C 49.2°F9.6°C 95% 1.2 mph NW1.9 kmh NW 4.6 mph7.4 kmh 30.64 in1037.6 mb - 0.00 in0.0 mm 0.00 in0.0 mm
06:40 PM 50.6°F10.3°C 49.2°F9.6°C 95% Calm Calm 2.3 mph3.7 kmh 30.65 in1037.9 mb - 0.00 in0.0 mm 0.00 in0.0 mm
06:50 PM 50.6°F10.3°C 49.2°F9.6°C 95% 3.5 mph NNW5.6 kmh NNW 5.8 mph9.3 kmh 30.65 in1037.9 mb - 0.00 in0.0 mm 0.00 in0.0 mm
07:00 PM 50.5°F10.3°C 49.1°F9.5°C 95% 2.3 mph NNW3.7 kmh NNW 4.6 mph7.4 kmh 30.64 in1037.6 mb - 0.00 in0.0 mm 0.00 in0.0 mm
07:10 PM 50.4°F10.2°C 49.0°F9.4°C 95% Calm Calm -- 30.65 in1037.9 mb - 0.00 in0.0 mm 0.00 in0.0 mm
07:20 PM 50.4°F10.2°C 49.0°F9.4°C 95% 1.2 mph NW1.9 kmh NW 4.6 mph7.4 kmh 30.65 in1037.9 mb - 0.00 in0.0 mm 0.00 in0.0 mm
07:30 PM 50.2°F10.1°C 48.8°F9.3°C 95% 3.5 mph WNW5.6 kmh WNW 5.8 mph9.3 kmh 30.64 in1037.6 mb - 0.00 in0.0 mm 0.00 in0.0 mm
07:40 PM 49.9°F9.9°C 48.5°F9.2°C 95% 2.3 mph NW3.7 kmh NW 5.8 mph9.3 kmh 30.65 in1037.9 mb - 0.00 in0.0 mm 0.00 in0.0 mm
07:50 PM 49.7°F9.8°C 48.3°F9.1°C 95% 3.5 mph NW5.6 kmh NW 8.1 mph13.0 kmh 30.65 in1037.9 mb - 0.00 in0.0 mm 0.00 in0.0 mm
08:00 PM 49.6°F9.8°C 48.2°F9.0°C 95% 4.6 mph NW7.4 kmh NW 6.9 mph11.1 kmh 30.64 in1037.6 mb - 0.00 in0.0 mm 0.00 in0.0 mm
08:10 PM 49.4°F9.7°C 48.1°F8.9°C 95% 4.6 mph NW7.4 kmh NW 8.1 mph13.0 kmh 30.65 in1037.9 mb - 0.00 in0.0 mm 0.00 in0.0 mm
08:20 PM 49.4°F9.7°C 48.0°F8.9°C 95% 4.6 mph W7.4 kmh W 8.1 mph13.0 kmh 30.65 in1037.9 mb - 0.00 in0.0 mm 0.00 in0.0 mm
08:30 PM 49.5°F9.7°C 48.1°F8.9°C 95% 3.5 mph W5.6 kmh W 5.8 mph9.3 kmh 30.64 in1037.6 mb - 0.00 in0.0 mm 0.00 in0.0 mm
08:40 PM 49.5°F9.7°C 48.1°F8.9°C 95% 1.2 mph W1.9 kmh W 2.3 mph3.7 kmh 30.65 in1037.9 mb - 0.00 in0.0 mm 0.00 in0.0 mm
08:50 PM 49.5°F9.7°C 48.1°F8.9°C 95% 1.2 mph WNW1.9 kmh WNW 5.8 mph9.3 kmh 30.64 in1037.6 mb - 0.00 in0.0 mm 0.00 in0.0 mm
09:00 PM 49.5°F9.7°C 48.4°F9.1°C 96% 2.3 mph WNW3.7 kmh WNW 5.8 mph9.3 kmh 30.65 in1037.9 mb - 0.00 in0.0 mm 0.00 in0.0 mm
09:10 PM 49.5°F9.7°C 48.4°F9.1°C 96% 6.9 mph NW11.1 kmh NW 12.7 mph20.4 kmh 30.65 in1037.9 mb - 0.00 in0.0 mm 0.00 in0.0 mm
09:20 PM 49.6°F9.8°C 48.2°F9.0°C 95% 6.9 mph WNW11.1 kmh WNW 8.1 mph13.0 kmh 30.65 in1037.9 mb - 0.00 in0.0 mm 0.00 in0.0 mm
09:30 PM 49.5°F9.7°C 48.2°F9.0°C 95% 2.3 mph NW3.7 kmh NW 6.9 mph11.1 kmh 30.64 in1037.6 mb - 0.00 in0.0 mm 0.00 in0.0 mm
09:40 PM 49.4°F9.7°C 48.0°F8.9°C 95% 6.9 mph WNW11.1 kmh WNW 11.5 mph18.5 kmh 30.64 in1037.6 mb - 0.00 in0.0 mm 0.00 in0.0 mm
09:50 PM 49.4°F9.7°C 48.0°F8.9°C 95% 5.8 mph NW9.3 kmh NW 9.2 mph14.8 kmh 30.64 in1037.6 mb - 0.00 in0.0 mm 0.00 in0.0 mm
10:00 PM 49.5°F9.7°C 48.1°F8.9°C 95% 2.3 mph NW3.7 kmh NW 4.6 mph7.4 kmh 30.64 in1037.6 mb - 0.00 in0.0 mm 0.00 in0.0 mm
10:10 PM 49.5°F9.7°C 48.1°F8.9°C 95% Calm Calm 2.3 mph3.7 kmh 30.64 in1037.6 mb - 0.00 in0.0 mm 0.00 in0.0 mm
10:20 PM 49.5°F9.7°C 48.1°F8.9°C 95% 4.6 mph NW7.4 kmh NW 8.1 mph13.0 kmh 30.64 in1037.6 mb - 0.00 in0.0 mm 0.00 in0.0 mm
10:30 PM 49.5°F9.7°C 48.1°F8.9°C 95% 1.2 mph W1.9 kmh W -- 30.64 in1037.6 mb - 0.00 in0.0 mm 0.00 in0.0 mm
10:40 PM 49.5°F9.7°C 48.1°F8.9°C 95% 3.5 mph NW5.6 kmh NW 5.8 mph9.3 kmh 30.63 in1037.3 mb - 0.00 in0.0 mm 0.00 in0.0 mm
10:50 PM 49.5°F9.7°C 48.1°F8.9°C 95% 1.2 mph NW1.9 kmh NW 6.9 mph11.1 kmh 30.63 in1037.3 mb - 0.00 in0.0 mm 0.00 in0.0 mm
11:00 PM 49.5°F9.7°C 48.1°F8.9°C 95% 1.2 mph WNW1.9 kmh WNW 2.3 mph3.7 kmh 30.64 in1037.6 mb - 0.00 in0.0 mm 0.00 in0.0 mm
11:10 PM 49.6°F9.8°C 48.2°F9.0°C 95% 1.2 mph W1.9 kmh W 2.3 mph3.7 kmh 30.64 in1037.6 mb - 0.00 in0.0 mm 0.00 in0.0 mm
11:20 PM 49.7°F9.8°C 48.3°F9.1°C 95% 2.3 mph NW3.7 kmh NW 4.6 mph7.4 kmh 30.64 in1037.6 mb - 0.00 in0.0 mm 0.00 in0.0 mm
11:30 PM 49.7°F9.8°C 48.3°F9.1°C 95% 3.5 mph WNW5.6 kmh WNW 5.8 mph9.3 kmh 30.64 in1037.6 mb - 0.00 in0.0 mm 0.00 in0.0 mm
11:40 PM 49.8°F9.9°C 48.4°F9.1°C 95% 4.6 mph WNW7.4 kmh WNW 6.9 mph11.1 kmh 30.63 in1037.3 mb - 0.00 in0.0 mm 0.00 in0.0 mm
11:50 PM 49.8°F9.9°C 48.4°F9.1°C 95% Calm Calm -- 30.63 in1037.3 mb - 0.00 in0.0 mm 0.00 in0.0 mm